Time;durP1;ratioP1;P1;durP2;ratioP2;P2;SDS_P1;SDS_P2;PMS_P1;PMS_P2;Temp;Humidity;BMP_temperature;BMP_pressure;BME280_temperature;BME280_humidity;BME280_pressure;Samples;Min_cycle;Max_cycle;Signal;HPM_P1;HPM_P2
2023/07/14 00:01:39;;;;;;;22.83;18.48;;;;;;;16.14;100.00;101639.97;5051269;28;20082;-69
2023/07/14 00:04:16;;;;;;;25.15;19.00;;;;;;;16.15;100.00;101644.41;5051217;28;20086;-70
2023/07/14 00:06:44;;;;;;;23.88;18.58;;;;;;;16.13;100.00;101643.09;5051267;28;20495;-69
2023/07/14 00:09:30;;;;;;;22.17;17.98;;;;;;;16.16;100.00;101645.22;5049719;28;20112;-69
2023/07/14 00:11:56;;;;;;;22.52;18.67;;;;;;;16.17;100.00;101649.66;5051250;28;20037;-69
2023/07/14 00:14:22;;;;;;;23.80;18.45;;;;;;;16.14;100.00;101647.53;5051120;28;20088;-70
2023/07/14 00:16:47;;;;;;;23.52;18.65;;;;;;;16.15;100.00;101643.63;5051143;28;20029;-70
2023/07/14 00:19:17;;;;;;;23.65;19.35;;;;;;;16.13;100.00;101638.34;5051105;28;20040;-70
2023/07/14 00:21:44;;;;;;;22.27;18.05;;;;;;;16.14;100.00;101639.19;5051037;28;20033;-70
2023/07/14 00:24:15;;;;;;;24.33;18.48;;;;;;;16.18;100.00;101629.81;5051027;28;20099;-69
2023/07/14 00:26:45;;;;;;;25.52;18.10;;;;;;;16.12;100.00;101633.09;5050676;28;20057;-69
2023/07/14 00:29:34;;;;;;;22.70;18.40;;;;;;;16.05;100.00;101634.41;5051203;28;20029;-70
2023/07/14 00:32:00;;;;;;;22.52;17.67;;;;;;;15.96;100.00;101633.56;5051153;28;20388;-69
2023/07/14 00:34:25;;;;;;;22.52;17.60;;;;;;;15.93;100.00;101636.97;5050899;28;20021;-70
2023/07/14 00:36:52;;;;;;;24.52;18.35;;;;;;;15.90;100.00;101630.09;5050846;28;20472;-70
2023/07/14 00:39:17;;;;;;;24.02;18.52;;;;;;;15.85;100.00;101643.34;5049510;28;20125;-70
2023/07/14 00:41:43;;;;;;;23.00;17.38;;;;;;;15.86;100.00;101636.63;5051002;28;20108;-70
2023/07/14 00:44:15;;;;;;;23.42;17.80;;;;;;;15.80;100.00;101638.72;5049386;28;20087;-69
2023/07/14 00:46:41;;;;;;;23.27;18.05;;;;;;;15.74;100.00;101638.03;5054256;28;20060;-69
2023/07/14 00:49:13;;;;;;;24.88;18.65;;;;;;;15.69;100.00;101628.97;5054652;28;20112;-69
2023/07/14 00:51:40;;;;;;;22.90;17.60;;;;;;;15.69;100.00;101623.41;5054707;28;20043;-70
2023/07/14 00:54:06;;;;;;;23.95;17.80;;;;;;;15.70;100.00;101620.28;5054538;28;20033;-69
2023/07/14 00:56:47;;;;;;;22.17;17.88;;;;;;;15.63;100.00;101614.34;5054661;28;20033;-70
2023/07/14 00:59:15;;;;;;;22.60;18.00;;;;;;;15.68;100.00;101618.97;5036688;28;20031;-70
2023/07/14 01:02:16;;;;;;;23.33;18.85;;;;;;;15.72;100.00;101619.97;5054511;28;20035;-70
2023/07/14 01:05:05;;;;;;;23.50;17.85;;;;;;;15.70;100.00;101625.06;5054462;28;20075;-70
2023/07/14 01:07:35;;;;;;;22.85;17.88;;;;;;;15.72;100.00;101622.78;5054220;28;20040;-70
2023/07/14 01:10:02;;;;;;;22.63;17.05;;;;;;;15.74;100.00;101628.81;5054183;28;20029;-69
2023/07/14 01:12:33;;;;;;;24.58;17.90;;;;;;;15.73;100.00;101610.44;5053026;28;20021;-69
2023/07/14 01:14:59;;;;;;;23.23;18.30;;;;;;;15.75;100.00;101608.16;5054328;28;20104;-70
2023/07/14 01:17:24;;;;;;;22.30;18.17;;;;;;;15.71;100.00;101609.97;5052852;28;20029;-70
2023/07/14 01:19:57;;;;;;;21.92;17.30;;;;;;;15.70;100.00;101602.75;5054245;28;20044;-70
2023/07/14 01:22:41;;;;;;;24.00;17.73;;;;;;;15.74;100.00;101612.09;5054291;28;20075;-70
2023/07/14 01:25:28;;;;;;;23.65;19.10;;;;;;;15.75;100.00;101611.78;5054206;28;20028;-70
2023/07/14 01:27:53;;;;;;;24.05;18.50;;;;;;;15.77;100.00;101608.66;5052454;28;20424;-70
2023/07/14 01:30:19;;;;;;;25.42;19.63;;;;;;;15.77;100.00;101608.66;5052599;28;20074;-70
2023/07/14 01:32:48;;;;;;;22.67;18.25;;;;;;;15.74;100.00;101589.78;5053919;28;20040;-70
2023/07/14 01:35:16;;;;;;;23.40;17.80;;;;;;;15.79;100.00;101595.22;5053833;28;20031;-70
2023/07/14 01:37:42;;;;;;;22.88;17.48;;;;;;;15.82;100.00;101590.94;5053736;28;20025;-69
2023/07/14 01:40:14;;;;;;;23.42;18.45;;;;;;;15.75;100.00;101592.25;5053763;28;20033;-70
2023/07/14 01:42:42;;;;;;;23.38;17.67;;;;;;;15.75;100.00;101597.00;5052465;28;20028;-70
2023/07/14 01:45:13;;;;;;;23.10;17.00;;;;;;;15.72;100.00;101594.88;5053604;28;20029;-70
2023/07/14 01:47:42;;;;;;;21.83;16.67;;;;;;;15.71;100.00;101590.44;5053634;28;20033;-70
2023/07/14 01:50:26;;;;;;;22.85;17.08;;;;;;;15.63;100.00;101592.03;5053665;28;20127;-70
2023/07/14 01:52:55;;;;;;;23.35;17.30;;;;;;;15.58;100.00;101601.38;5053670;28;20104;-70
2023/07/14 01:55:23;;;;;;;21.95;17.05;;;;;;;15.61;100.00;101608.28;5053532;28;20028;-69
2023/07/14 01:57:55;;;;;;;21.60;16.98;;;;;;;15.57;100.00;101599.72;5053390;28;20021;-69
2023/07/14 02:00:21;;;;;;;24.55;17.40;;;;;;;15.58;100.00;101600.56;5051981;28;20401;-69
2023/07/14 02:02:48;;;;;;;21.65;16.10;;;;;;;15.61;100.00;101597.13;5053468;28;20032;-70
2023/07/14 02:05:14;;;;;;;23.05;17.95;;;;;;;15.56;100.00;101594.47;5053372;28;20056;-69
2023/07/14 02:07:40;;;;;;;22.38;16.88;;;;;;;15.54;100.00;101594.78;5053418;28;20519;-70
2023/07/14 02:10:12;;;;;;;22.17;17.35;;;;;;;15.52;100.00;101596.25;5053174;28;20049;-70
2023/07/14 02:12:42;;;;;;;22.70;16.90;;;;;;;15.50;100.00;101591.00;5053218;28;20519;-69
2023/07/14 02:15:12;;;;;;;25.38;17.90;;;;;;;15.44;100.00;101584.75;5053186;28;20024;-69
2023/07/14 02:17:38;;;;;;;23.77;17.73;;;;;;;15.47;100.00;101588.06;5053214;28;20029;-69
2023/07/14 02:20:16;;;;;;;22.50;17.48;;;;;;;15.49;100.00;101583.78;5053107;28;20385;-70
2023/07/14 02:22:42;;;;;;;22.83;17.38;;;;;;;15.51;100.00;101575.09;5053038;28;20075;-69
2023/07/14 02:25:13;;;;;;;25.15;18.63;;;;;;;15.53;100.00;101573.66;5051447;28;20052;-70
2023/07/14 02:27:38;;;;;;;25.02;18.50;;;;;;;15.52;100.00;101571.16;5052680;28;20056;-70
2023/07/14 02:30:15;;;;;;;23.60;18.42;;;;;;;15.47;100.00;101569.34;5052855;28;20666;-70
2023/07/14 02:32:45;;;;;;;23.35;17.90;;;;;;;15.43;100.00;101580.31;5052987;28;20492;-69
2023/07/14 02:35:18;;;;;;;24.92;17.60;;;;;;;15.39;100.00;101579.34;5052769;28;20045;-70
2023/07/14 02:38:00;;;;;;;24.17;19.20;;;;;;;15.44;100.00;101578.38;5051503;28;20040;-70
2023/07/14 02:40:29;;;;;;;22.38;17.85;;;;;;;15.36;100.00;101576.34;5052904;28;20039;-69
2023/07/14 02:42:55;;;;;;;23.30;17.52;;;;;;;15.36;100.00;101581.91;5052621;28;20067;-70
2023/07/14 02:45:22;;;;;;;23.83;17.40;;;;;;;15.37;100.00;101580.78;5051267;28;20334;-70
2023/07/14 02:47:50;;;;;;;23.02;17.27;;;;;;;15.36;100.00;101584.69;5052577;28;20085;-69
2023/07/14 02:50:15;;;;;;;23.88;18.70;;;;;;;15.34;100.00;101581.44;5051135;28;20036;-70
2023/07/14 02:52:41;;;;;;;23.20;17.50;;;;;;;15.32;100.00;101584.53;5051030;28;20073;-69
2023/07/14 02:55:07;;;;;;;23.40;17.98;;;;;;;15.29;100.00;101577.63;5052562;28;20033;-70
2023/07/14 02:57:34;;;;;;;23.50;18.73;;;;;;;15.26;100.00;101574.66;5052366;28;20039;-70
2023/07/14 02:59:59;;;;;;;23.20;17.85;;;;;;;15.19;100.00;101572.34;5052508;28;20466;-70
2023/07/14 03:02:25;;;;;;;25.55;18.08;;;;;;;15.12;100.00;101575.56;5052354;28;20033;-70
2023/07/14 03:04:50;;;;;;;22.80;17.67;;;;;;;15.06;100.00;101574.06;5052356;28;20057;-70
2023/07/14 03:07:16;;;;;;;23.90;18.45;;;;;;;15.04;100.00;101583.91;5052382;28;20036;-70
2023/07/14 03:09:41;;;;;;;23.98;18.40;;;;;;;15.01;100.00;101576.16;5051638;28;20135;-69
2023/07/14 03:12:08;;;;;;;24.30;17.73;;;;;;;14.93;100.00;101570.22;5050775;28;20048;-70
2023/07/14 03:14:34;;;;;;;24.52;19.10;;;;;;;15.00;100.00;101568.94;5052091;28;20032;-70
2023/07/14 03:17:00;;;;;;;24.42;18.80;;;;;;;14.97;100.00;101564.84;5052057;28;20066;-70
2023/07/14 03:19:25;;;;;;;23.65;19.58;;;;;;;14.98;100.00;101567.28;5051977;28;20028;-70
2023/07/14 03:21:50;;;;;;;23.90;19.20;;;;;;;14.95;100.00;101553.19;5051969;28;20104;-70
2023/07/14 03:24:16;;;;;;;24.10;18.83;;;;;;;14.98;100.00;101550.56;5052136;28;20032;-69
2023/07/14 03:26:41;;;;;;;23.65;18.95;;;;;;;14.97;100.00;101557.28;5051626;28;20049;-70
2023/07/14 03:29:07;;;;;;;23.52;18.70;;;;;;;14.97;100.00;101564.84;5051609;28;20029;-70
2023/07/14 03:31:32;;;;;;;24.58;19.08;;;;;;;15.02;100.00;101566.66;5051812;28;20028;-70
2023/07/14 03:33:57;;;;;;;24.38;18.42;;;;;;;15.01;100.00;101557.50;5051871;28;20563;-70
2023/07/14 03:36:25;;;;;;;23.65;18.60;;;;;;;15.03;100.00;101557.16;5051687;28;20035;-70
2023/07/14 03:39:24;;;;;;;23.17;17.95;;;;;;;15.05;100.00;101558.50;5051845;28;20057;-69
2023/07/14 03:41:51;;;;;;;24.20;18.38;;;;;;;15.06;100.00;101556.53;5051381;28;20100;-69
2023/07/14 03:44:17;;;;;;;24.15;18.60;;;;;;;15.07;100.00;101560.94;5051412;28;20116;-69
2023/07/14 03:46:42;;;;;;;24.73;18.13;;;;;;;15.10;100.00;101552.78;5051263;28;20545;-69
2023/07/14 03:49:08;;;;;;;24.15;18.70;;;;;;;15.10;100.00;101551.97;5051373;28;20444;-69
2023/07/14 03:51:33;;;;;;;23.10;17.92;;;;;;;15.11;100.00;101542.47;5051425;28;20033;-69
2023/07/14 03:53:58;;;;;;;22.40;17.60;;;;;;;15.10;100.00;101546.38;5051402;28;20076;-69
2023/07/14 03:56:25;;;;;;;22.73;17.52;;;;;;;15.09;100.00;101541.94;5051421;28;20057;-69
2023/07/14 03:58:51;;;;;;;22.80;17.52;;;;;;;15.11;100.00;101550.81;5051290;28;20029;-70
2023/07/14 04:01:16;;;;;;;24.27;17.63;;;;;;;15.10;100.00;101544.44;5051338;28;20087;-69
2023/07/14 04:03:42;;;;;;;23.33;17.58;;;;;;;15.12;100.00;101541.31;5051364;28;20029;-69
2023/07/14 04:06:07;;;;;;;22.90;16.38;;;;;;;15.10;100.00;101538.88;5051338;28;20048;-70
2023/07/14 04:08:36;;;;;;;23.17;16.63;;;;;;;15.11;100.00;101543.25;5051153;28;20059;-69
2023/07/14 04:11:02;;;;;;;25.05;17.42;;;;;;;15.13;100.00;101543.78;5051210;28;20079;-69
2023/07/14 04:13:27;;;;;;;22.85;16.77;;;;;;;15.13;100.00;101546.56;5051228;28;20028;-69
2023/07/14 04:15:53;;;;;;;22.60;17.08;;;;;;;15.15;100.00;101549.06;5051209;28;20029;-70
2023/07/14 04:18:18;;;;;;;22.63;16.85;;;;;;;15.18;100.00;101542.00;5051109;28;20381;-69
2023/07/14 04:20:44;;;;;;;21.67;16.38;;;;;;;15.19;100.00;101544.47;5052564;28;20033;-69
2023/07/14 04:23:09;;;;;;;24.55;16.83;;;;;;;15.24;100.00;101537.91;5055177;28;20030;-69
2023/07/14 04:25:35;;;;;;;23.27;16.58;;;;;;;15.26;100.00;101527.28;5053828;28;20053;-69
2023/07/14 04:28:01;;;;;;;22.80;16.30;;;;;;;15.34;100.00;101536.84;5055065;28;20095;-68
2023/07/14 04:30:26;;;;;;;23.55;17.52;;;;;;;15.33;100.00;101527.63;5055014;28;20419;-69
2023/07/14 04:32:53;;;;;;;23.30;17.13;;;;;;;15.33;100.00;101527.63;5055152;28;20496;-70
2023/07/14 04:35:19;;;;;;;22.55;16.98;;;;;;;15.35;100.00;101521.75;5053622;28;20025;-70
2023/07/14 04:37:44;;;;;;;23.55;16.08;;;;;;;15.39;100.00;101529.16;5053879;28;20469;-69
2023/07/14 04:40:10;;;;;;;22.67;16.45;;;;;;;15.44;100.00;101531.78;5055025;28;20086;-69
2023/07/14 04:42:36;;;;;;;23.42;16.40;;;;;;;15.52;100.00;101530.19;5054973;28;20100;-69
2023/07/14 04:45:01;;;;;;;24.77;16.40;;;;;;;15.57;100.00;101532.00;5054906;28;20115;-69
2023/07/14 04:47:26;;;;;;;24.52;16.33;;;;;;;15.60;100.00;101531.31;5055153;28;20017;-69
2023/07/14 04:49:52;;;;;;;21.48;16.23;;;;;;;15.62;100.00;101533.81;5055042;28;20052;-69
2023/07/14 04:52:18;;;;;;;21.83;16.20;;;;;;;15.65;100.00;101531.19;5055016;28;20416;-69
2023/07/14 04:54:44;;;;;;;21.40;15.27;;;;;;;15.67;100.00;101531.69;5055374;28;20029;-70
2023/07/14 04:57:10;;;;;;;22.95;15.75;;;;;;;15.72;100.00;101530.72;5055159;28;20029;-69
2023/07/14 04:59:36;;;;;;;22.98;16.30;;;;;;;15.81;100.00;101530.72;5053536;28;20071;-69
2023/07/14 05:02:04;;;;;;;23.00;16.80;;;;;;;15.92;100.00;101537.66;5054840;28;20598;-69
2023/07/14 05:04:30;;;;;;;23.00;16.88;;;;;;;15.98;100.00;101536.34;5055081;28;20029;-69
2023/07/14 05:06:55;;;;;;;23.02;16.50;;;;;;;16.05;100.00;101533.91;5054713;28;20369;-69
2023/07/14 05:09:21;;;;;;;23.48;16.35;;;;;;;16.04;100.00;101523.91;5054655;28;20481;-69
2023/07/14 05:11:46;;;;;;;24.20;16.92;;;;;;;16.05;100.00;101531.13;5054583;28;20538;-69
2023/07/14 05:14:11;;;;;;;25.13;17.60;;;;;;;16.01;100.00;101527.34;5054573;28;20366;-69
2023/07/14 05:16:38;;;;;;;21.95;17.10;;;;;;;15.98;100.00;101530.78;5054470;28;20396;-71
2023/07/14 05:19:03;;;;;;;24.83;17.52;;;;;;;16.02;100.00;101528.97;5054606;28;20028;-69
2023/07/14 05:21:29;;;;;;;22.23;15.80;;;;;;;16.01;100.00;101518.97;5054438;28;20033;-69
2023/07/14 05:23:54;;;;;;;22.88;16.00;;;;;;;16.09;100.00;101522.09;5054459;28;20029;-69
2023/07/14 05:26:20;;;;;;;23.13;16.20;;;;;;;16.16;100.00;101514.88;5054234;28;20155;-69
2023/07/14 05:28:45;;;;;;;22.80;16.23;;;;;;;16.31;100.00;101519.16;5054402;28;20025;-69
2023/07/14 05:31:12;;;;;;;23.52;15.40;;;;;;;16.34;100.00;101523.25;5053965;28;20055;-69
2023/07/14 05:33:38;;;;;;;21.08;14.95;;;;;;;16.38;100.00;101525.03;5054341;28;20134;-69
2023/07/14 05:36:04;;;;;;;22.55;15.10;;;;;;;16.41;100.00;101520.78;5054361;28;20418;-69
2023/07/14 05:38:30;;;;;;;22.25;14.80;;;;;;;16.52;100.00;101526.84;5054245;28;20550;-69
2023/07/14 05:40:56;;;;;;;22.35;15.00;;;;;;;16.63;100.00;101530.94;5053976;28;20103;-69
2023/07/14 05:43:23;;;;;;;20.73;14.77;;;;;;;16.76;99.66;101531.06;5053770;28;20078;-69
2023/07/14 05:45:49;;;;;;;21.58;14.63;;;;;;;16.84;99.03;101525.47;5053973;28;20082;-69
2023/07/14 05:48:16;;;;;;;21.05;14.20;;;;;;;16.90;98.88;101526.13;5053841;28;20385;-68
2023/07/14 05:50:45;;;;;;;22.52;13.60;;;;;;;16.91;97.20;101524.94;5053793;28;20031;-69
2023/07/14 05:53:11;;;;;;;20.50;13.55;;;;;;;16.88;96.69;101522.84;5053638;28;20032;-69
2023/07/14 05:55:36;;;;;;;20.30;12.95;;;;;;;16.83;96.63;101525.78;5053635;28;20024;-70
2023/07/14 05:58:01;;;;;;;20.08;13.60;;;;;;;16.75;96.99;101526.63;5052031;28;20033;-68
2023/07/14 06:00:27;;;;;;;22.60;13.45;;;;;;;16.78;96.13;101523.19;5053427;28;20504;-69
2023/07/14 06:02:52;;;;;;;20.48;12.75;;;;;;;16.79;95.13;101522.84;5053510;28;20040;-70
2023/07/14 06:05:19;;;;;;;22.92;13.32;;;;;;;16.78;94.67;101524.00;5053564;28;20033;-69
2023/07/14 06:07:45;;;;;;;20.23;13.02;;;;;;;16.77;94.34;101521.53;5053455;28;20039;-69
2023/07/14 06:10:12;;;;;;;21.65;13.48;;;;;;;16.82;94.12;101532.53;5053285;28;20021;-69
2023/07/14 06:12:38;;;;;;;21.08;12.77;;;;;;;16.84;93.19;101525.47;5053102;28;20095;-70
2023/07/14 06:15:04;;;;;;;20.65;12.68;;;;;;;16.95;92.91;101527.94;5053165;28;20481;-69
2023/07/14 06:17:29;;;;;;;20.15;12.98;;;;;;;17.11;92.72;101531.00;5053220;28;20029;-69
2023/07/14 06:19:55;;;;;;;21.48;13.30;;;;;;;17.21;90.95;101527.03;5053182;28;20032;-68
2023/07/14 06:22:22;;;;;;;20.98;12.95;;;;;;;17.19;91.52;101530.19;5053232;28;20435;-69
2023/07/14 06:24:48;;;;;;;19.98;13.15;;;;;;;17.10;91.11;101521.81;5053053;28;20065;-68
2023/07/14 06:27:15;;;;;;;21.45;13.07;;;;;;;17.14;91.87;101527.53;5052812;28;20041;-69
2023/07/14 06:29:40;;;;;;;20.75;12.32;;;;;;;17.13;91.06;101523.09;5053123;28;20032;-70
2023/07/14 06:32:06;;;;;;;19.27;12.40;;;;;;;17.07;91.29;101527.25;5053058;28;20029;-71
2023/07/14 06:34:31;;;;;;;20.92;12.43;;;;;;;17.10;90.26;101518.19;5052969;28;20530;-70
2023/07/14 06:36:57;;;;;;;19.73;12.60;;;;;;;17.28;90.02;101525.38;5052961;28;20079;-69
2023/07/14 06:39:23;;;;;;;20.40;12.15;;;;;;;17.39;87.01;101522.16;5052958;28;20033;-70
2023/07/14 06:41:49;;;;;;;19.38;12.23;;;;;;;17.53;86.22;101524.72;5052927;28;20033;-69
2023/07/14 06:44:15;;;;;;;20.27;12.10;;;;;;;17.68;86.62;101526.97;5051920;28;20131;-70
2023/07/14 06:46:41;;;;;;;19.83;12.90;;;;;;;17.75;85.61;101524.44;5052831;28;20025;-69
2023/07/14 06:49:07;;;;;;;20.00;11.82;;;;;;;17.90;84.75;101522.22;5052547;28;20025;-69
2023/07/14 06:51:32;;;;;;;25.10;13.50;;;;;;;17.94;82.36;101514.78;5052585;28;20178;-69
2023/07/14 06:53:57;;;;;;;20.33;12.27;;;;;;;18.00;83.92;101518.22;5052679;28;20049;-69
2023/07/14 06:56:23;;;;;;;20.73;12.30;;;;;;;18.05;82.85;101515.22;5052528;28;20033;-69
2023/07/14 06:58:49;;;;;;;21.00;11.70;;;;;;;18.17;80.47;101517.28;5052486;28;20029;-69
2023/07/14 07:01:15;;;;;;;19.25;11.98;;;;;;;18.23;81.13;101510.28;5052349;28;20385;-70
2023/07/14 07:03:41;;;;;;;21.13;11.65;;;;;;;18.25;81.08;101502.38;5052437;28;20025;-69
2023/07/14 07:06:06;;;;;;;18.50;11.82;;;;;;;18.46;81.61;101513.53;5052371;28;20025;-69
2023/07/14 07:08:32;;;;;;;20.65;11.80;;;;;;;18.45;79.90;101514.72;5052223;28;20480;-70
2023/07/14 07:10:58;;;;;;;19.45;11.45;;;;;;;18.57;80.94;101510.31;5052081;28;20033;-69
2023/07/14 07:13:23;;;;;;;19.23;11.20;;;;;;;18.63;78.95;101497.72;5052157;28;20033;-69
2023/07/14 07:15:49;;;;;;;19.58;11.30;;;;;;;18.65;78.31;101501.84;5050995;28;20037;-70
2023/07/14 07:18:14;;;;;;;20.98;11.65;;;;;;;18.72;78.95;101495.63;5052125;28;20029;-69
2023/07/14 07:20:42;;;;;;;19.38;11.38;;;;;;;18.80;79.00;101493.91;5052019;28;20457;-69
2023/07/14 07:23:09;;;;;;;19.08;11.00;;;;;;;18.81;77.14;101492.75;5051973;28;20098;-69
2023/07/14 07:25:34;;;;;;;18.58;11.10;;;;;;;18.83;76.46;101499.66;5052070;28;20060;-69
2023/07/14 07:28:00;;;;;;;19.30;11.38;;;;;;;18.82;77.11;101492.41;5052174;28;20103;-69
2023/07/14 07:30:26;;;;;;;18.63;10.75;;;;;;;18.78;75.08;101485.88;5051922;28;20048;-69
2023/07/14 07:32:52;;;;;;;19.60;10.93;;;;;;;18.66;75.08;101481.03;5051799;28;20021;-69
2023/07/14 07:35:18;;;;;;;19.30;10.90;;;;;;;18.67;75.90;101488.28;5051886;28;20033;-69
2023/07/14 07:37:44;;;;;;;16.83;10.20;;;;;;;18.63;73.55;101495.75;5051769;28;20035;-69
2023/07/14 07:40:11;;;;;;;16.85;10.45;;;;;;;18.75;73.90;101488.56;5051740;28;20045;-69
2023/07/14 07:42:37;;;;;;;16.40;10.25;;;;;;;18.79;72.64;101484.69;5050290;28;20447;-70
2023/07/14 07:45:03;;;;;;;16.75;10.02;;;;;;;18.89;72.48;101491.03;5051562;28;20059;-69
2023/07/14 07:47:28;;;;;;;17.98;10.30;;;;;;;18.98;72.79;101480.56;5051444;28;20033;-68
2023/07/14 07:49:54;;;;;;;17.83;10.65;;;;;;;19.10;71.91;101486.16;5051343;28;20032;-69
2023/07/14 07:52:20;;;;;;;19.35;11.10;;;;;;;19.17;72.38;101480.81;5051586;28;20037;-68
2023/07/14 07:54:46;;;;;;;16.48;10.10;;;;;;;19.38;73.05;101473.44;5051301;28;20095;-68
2023/07/14 07:57:11;;;;;;;17.02;10.00;;;;;;;19.56;71.02;101455.19;5051383;28;20029;-68
2023/07/14 07:59:38;;;;;;;17.13;10.25;;;;;;;19.64;71.74;101464.66;5051254;28;20457;-68
2023/07/14 08:02:04;;;;;;;17.75;10.07;;;;;;;19.79;70.79;101469.50;5051296;28;20124;-68
2023/07/14 08:04:29;;;;;;;16.52;10.10;;;;;;;19.84;69.20;101470.47;5051269;28;20089;-68
2023/07/14 08:06:55;;;;;;;14.77;9.90;;;;;;;19.93;69.01;101468.34;5051366;28;20029;-70
2023/07/14 08:09:21;;;;;;;16.80;10.52;;;;;;;19.95;68.03;101465.97;5051136;28;20089;-69
2023/07/14 08:11:47;;;;;;;18.40;10.55;;;;;;;20.05;69.61;101464.69;5051248;28;20025;-68
2023/07/14 08:14:15;;;;;;;16.02;10.07;;;;;;;20.11;68.59;101443.59;5051217;28;20182;-68
2023/07/14 08:16:41;;;;;;;16.83;9.80;;;;;;;20.16;67.04;101456.56;5051144;28;20029;-68
2023/07/14 08:19:07;;;;;;;17.23;10.48;;;;;;;20.18;67.27;101452.22;5051299;28;20024;-68
2023/07/14 08:21:35;;;;;;;18.27;10.30;;;;;;;20.33;67.13;101461.06;5051170;28;20041;-68
2023/07/14 08:24:01;;;;;;;17.17;10.02;;;;;;;20.53;66.43;101454.41;5051054;28;20689;-68
2023/07/14 08:26:27;;;;;;;16.98;10.20;;;;;;;20.65;66.17;101456.31;5049554;28;20049;-69
2023/07/14 08:28:52;;;;;;;16.75;9.90;;;;;;;20.66;63.43;101459.94;5051264;28;20456;-69
2023/07/14 08:31:17;;;;;;;16.02;9.60;;;;;;;20.54;63.28;101456.03;5051227;28;20112;-68
2023/07/14 08:33:44;;;;;;;15.45;9.95;;;;;;;20.47;63.35;101457.81;5051122;28;20033;-68
2023/07/14 08:36:11;;;;;;;16.08;9.63;;;;;;;20.45;63.72;101462.97;5049511;28;20059;-69
2023/07/14 08:38:38;;;;;;;16.75;9.82;;;;;;;20.43;63.12;101463.34;5050950;28;20033;-68
2023/07/14 08:41:28;;;;;;;15.82;9.63;;;;;;;20.51;64.72;101461.53;5050880;28;20550;-68
2023/07/14 08:44:19;;;;;;;16.10;9.60;;;;;;;20.60;64.31;101459.38;5046353;28;20128;-68
2023/07/14 08:46:56;;;;;;;16.67;9.80;;;;;;;20.65;62.76;101456.31;5051055;28;20493;-68
2023/07/14 08:49:46;;;;;;;15.45;9.50;;;;;;;20.71;62.20;101459.69;5050847;28;20381;-69
2023/07/14 08:52:22;;;;;;;16.33;9.80;;;;;;;20.69;62.46;101460.03;5050926;28;20491;-69
2023/07/14 08:54:55;;;;;;;18.23;10.18;;;;;;;20.71;63.11;101454.06;5050907;28;20162;-69
2023/07/14 08:57:24;;;;;;;14.43;9.40;;;;;;;20.85;62.25;101454.44;5050838;28;20044;-68
2023/07/14 08:59:56;;;;;;;16.20;9.48;;;;;;;20.87;60.08;101448.47;5050794;28;20032;-68
2023/07/14 09:02:28;;;;;;;16.45;9.48;;;;;;;21.03;61.93;101445.63;5050777;28;20412;-68
2023/07/14 09:05:00;;;;;;;14.95;9.00;;;;;;;21.29;61.19;101442.25;5050810;28;20047;-69
2023/07/14 09:07:26;;;;;;;15.82;9.55;;;;;;;21.53;60.35;101436.75;5053040;28;20036;-69
2023/07/14 09:09:52;;;;;;;16.92;9.50;;;;;;;21.74;59.96;101439.25;5055103;28;20024;-69
2023/07/14 09:12:53;;;;;;;15.82;8.90;;;;;;;21.90;59.32;101437.22;5053040;28;20507;-68
2023/07/14 09:15:23;;;;;;;15.98;9.20;;;;;;;21.90;56.55;101437.22;5054386;28;20041;-68
2023/07/14 09:18:19;;;;;;;17.42;9.90;;;;;;;21.92;59.00;101434.03;5054406;28;20033;-68
2023/07/14 09:20:59;;;;;;;16.92;9.43;;;;;;;21.96;56.78;101434.94;5054342;28;20044;-68
2023/07/14 09:23:42;;;;;;;15.98;9.45;;;;;;;22.12;57.06;101432.00;5054287;28;20029;-68
2023/07/14 09:26:13;;;;;;;16.88;9.60;;;;;;;22.26;57.09;101428.66;5054188;28;20025;-68
2023/07/14 09:28:50;;;;;;;15.82;9.40;;;;;;;22.40;58.27;101426.16;5054305;28;20029;-69
2023/07/14 09:31:39;;;;;;;17.17;9.10;;;;;;;22.53;58.74;101426.78;5053996;28;20029;-68
2023/07/14 09:34:10;;;;;;;17.65;9.75;;;;;;;22.65;57.26;101420.16;5054006;28;20385;-69
2023/07/14 09:36:38;;;;;;;16.90;9.70;;;;;;;22.82;56.10;101418.00;5053951;28;20036;-69
2023/07/14 09:39:07;;;;;;;16.88;9.65;;;;;;;22.94;57.74;101415.00;5053890;28;20444;-68
2023/07/14 09:41:33;;;;;;;17.13;9.50;;;;;;;23.10;56.31;101420.50;5054196;28;20021;-68
2023/07/14 09:43:59;;;;;;;17.58;9.10;;;;;;;23.25;56.92;101409.44;5054093;28;20044;-68
2023/07/14 09:46:28;;;;;;;16.75;9.98;;;;;;;23.35;55.66;101405.97;5053821;28;20091;-68
2023/07/14 09:49:14;;;;;;;16.80;9.85;;;;;;;23.39;55.50;101406.00;5053769;28;20108;-68
2023/07/14 09:51:58;;;;;;;18.98;10.40;;;;;;;23.38;54.45;101405.22;5053817;28;20060;-67
2023/07/14 09:54:24;;;;;;;18.02;9.85;;;;;;;23.39;55.46;101403.19;5053790;28;20103;-69
2023/07/14 09:56:49;;;;;;;18.52;9.85;;;;;;;23.45;54.92;101405.31;5053731;28;20480;-68
2023/07/14 09:59:20;;;;;;;16.20;9.98;;;;;;;23.46;55.30;101384.34;5053632;28;20111;-68
2023/07/14 10:01:51;;;;;;;16.63;9.55;;;;;;;23.59;54.92;101386.94;5053707;28;20099;-68
2023/07/14 10:04:17;;;;;;;17.25;9.68;;;;;;;23.71;55.72;101388.72;5053450;28;20025;-68
2023/07/14 10:06:42;;;;;;;17.65;9.77;;;;;;;23.64;54.50;101383.78;5053291;28;20031;-68
2023/07/14 10:09:13;;;;;;;15.25;9.30;;;;;;;23.73;54.50;101381.47;5053276;28;20056;-69
2023/07/14 10:11:47;;;;;;;18.13;9.65;;;;;;;23.91;53.62;101376.03;5053264;28;20047;-69
2023/07/14 10:14:35;;;;;;;17.10;9.20;;;;;;;24.18;54.89;101375.16;5053297;28;20029;-68
2023/07/14 10:17:01;;;;;;;17.90;9.65;;;;;;;24.14;53.22;101366.63;5053535;28;20070;-68
2023/07/14 10:19:40;;;;;;;15.00;9.27;;;;;;;24.14;53.16;101352.50;5051940;28;20039;-68
2023/07/14 10:22:14;;;;;;;18.88;10.32;;;;;;;23.92;52.58;101354.25;5051839;28;20435;-69
2023/07/14 10:24:45;;;;;;;17.02;9.95;;;;;;;23.87;53.29;101355.41;5053202;28;20033;-69
2023/07/14 10:27:21;;;;;;;16.17;9.57;;;;;;;23.95;53.40;101345.84;5052920;28;20041;-69
2023/07/14 10:30:08;;;;;;;18.88;9.90;;;;;;;23.64;53.13;101342.25;5053411;28;20021;-70
2023/07/14 10:32:38;;;;;;;16.55;9.13;;;;;;;23.71;54.39;101338.66;5053077;28;20025;-68
2023/07/14 10:35:14;;;;;;;16.42;9.65;;;;;;;23.81;54.42;101332.34;5052994;28;20473;-69
2023/07/14 10:37:51;;;;;;;17.67;9.27;;;;;;;23.78;53.47;101333.13;5052878;28;20044;-69
2023/07/14 10:40:19;;;;;;;16.73;9.20;;;;;;;23.91;52.75;101335.66;5052932;28;20477;-68
2023/07/14 10:43:08;;;;;;;16.08;9.13;;;;;;;24.11;53.66;101331.47;5051179;28;20043;-68
2023/07/14 10:45:38;;;;;;;18.15;9.57;;;;;;;24.05;51.56;101323.72;5052571;28;20036;-68
2023/07/14 10:48:14;;;;;;;16.92;9.93;;;;;;;24.08;52.20;101322.97;5052640;28;20021;-69
2023/07/14 10:50:52;;;;;;;16.15;10.13;;;;;;;24.05;52.45;101315.25;5052676;28;20384;-69
2023/07/14 10:53:28;;;;;;;17.38;9.85;;;;;;;24.33;53.16;101313.91;5052750;28;20527;-70
2023/07/14 10:55:58;;;;;;;16.70;9.48;;;;;;;24.49;51.79;101307.97;5052679;28;20044;-69
2023/07/14 10:58:48;;;;;;;17.80;9.50;;;;;;;24.64;53.75;101306.91;5052376;28;20029;-69
2023/07/14 11:01:25;;;;;;;16.15;8.82;;;;;;;24.50;52.03;101309.59;5052328;28;20157;-70
2023/07/14 11:04:01;;;;;;;15.43;8.80;;;;;;;24.45;51.87;101305.13;5052404;28;20133;-68
2023/07/14 11:06:29;;;;;;;18.20;9.38;;;;;;;24.26;51.24;101294.88;5052402;28;20079;-69
2023/07/14 11:08:56;;;;;;;17.38;9.48;;;;;;;24.12;51.69;101298.38;5050920;28;20032;-68
2023/07/14 11:11:30;;;;;;;18.75;10.00;;;;;;;24.05;52.20;101304.78;5052168;28;20076;-68
2023/07/14 11:13:58;;;;;;;15.00;9.25;;;;;;;23.95;52.26;101302.66;5052249;28;20080;-69
2023/07/14 11:16:33;;;;;;;15.80;9.23;;;;;;;23.89;52.27;101292.88;5052114;28;20116;-68